Latest Weather Observations for Mullion

IDN60801

Issued at 12:43 am EDT Monday 26 October 2020 (issued every 10 minutes, with the page automatically refreshed every 10 minutes)

About weather observations | Map of weather stations | Latest weather observations for NSW | Other Formats
Station Details ID: 250070 Name: MULLION (PCS) Lat: -35.11 Lon: 148.85 Height: 750.0 m

Portable automatic weather stations (PAWS) are operated by other organisations, such as Fire and Emergency Services, and are included here by agreement. Portable stations may be deployed to a location for a short period and their location may be subject to change without notice. Wind observations from these stations are provided from heights of either three (3) or ten (10) metres above ground level (AGL).

Data from the previous 72 hours. | See also: Recent months for locations in New South Wales
Date/Time
EDT
Temp
°C
App
Temp
°C
Dew
Point
°C
Rel
Hum
%
Delta-T
°C
Wind Press
QNH
hPa
Press
MSL
hPa
Rain since
9am
mm
Dir  Spd
km/h
Gust
km/h
Spd
kts
Gust
kts
26/12:30am 7.6 -5.2 6.3 91 0.6 SE 63 72 34 39 1017.0 - 1.2
26/12:20am 7.6 -4.8 6.4 92 0.6 SE 61 63 33 34 1017.2 - 1.2
26/12:10am 7.6 -5.1 6.7 94 0.4 SE 63 67 34 36 1017.6 - 1.2
26/12:00am 7.7 -4.6 6.8 94 0.4 SE 61 65 33 35 1017.7 - 1.2
 
Date/Time
EDT
Temp
°C
App
Temp
°C
Dew
Point
°C
Rel
Hum
%
Delta-T
°C
Wind Press
QNH
hPa
Press
MSL
hPa
Rain since
9am
mm
Dir  Spd
km/h
Gust
km/h
Spd
kts
Gust
kts
25/11:50pm 7.8 -4.5 6.9 94 0.4 SE 61 65 33 35 1018.0 - 1.0
25/11:40pm 7.8 -4.4 7.4 97 0.2 SE 61 69 33 37 1018.1 - 1.0
25/11:30pm 7.9 -5.1 7.1 95 0.4 SE 65 69 35 37 1017.2 - 1.0
25/11:20pm 8.1 -4.8 7.7 97 0.2 SE 65 70 35 38 1017.3 - 1.0
25/11:10pm 8.2 - 8.3 - - SE 61 67 33 36 1017.4 - 0.8
25/11:00pm 8.3 - 8.4 - - SE 57 63 31 34 1017.5 - 0.8
25/10:50pm 8.3 - 8.4 - - SE 54 59 29 32 1018.1 - 0.6
25/10:40pm 8.4 -2.6 8.4 100 0.0 SE 56 61 30 33 1018.1 - 0.6
25/10:30pm 8.3 - 8.4 - - SE 56 57 30 31 1017.9 - 0.6
25/10:20pm 8.3 -2.7 8.3 100 0.0 SE 56 57 30 31 1017.7 - 0.6
25/10:10pm 8.4 -2.7 8.1 98 0.1 SE 56 59 30 32 1018.0 - 0.2
25/10:00pm 8.4 -2.9 8.1 98 0.1 SE 57 61 31 33 1017.8 - 0.0
25/09:50pm 8.4 -2.9 8.0 97 0.2 SE 57 61 31 33 1017.6 - 0.0
25/09:40pm 8.5 -2.8 7.8 95 0.3 SE 57 59 31 32 1017.5 - 0.0
25/09:30pm 8.6 -2.8 7.6 93 0.5 SE 57 61 31 33 1017.1 - 0.0
25/09:20pm 8.6 -2.8 7.5 93 0.5 SE 57 61 31 33 1017.6 - 0.0
25/09:10pm 8.6 -2.8 7.4 92 0.6 SE 57 59 31 32 1016.8 - 0.0
25/09:00pm 8.6 -2.8 7.4 92 0.6 SE 57 59 31 32 1017.1 - 0.0
25/08:50pm 8.6 -2.6 7.4 92 0.6 SE 56 57 30 31 1017.4 - 0.0
25/08:40pm 8.6 -1.9 7.2 91 0.7 SE 52 57 28 31 1017.3 - 0.0
25/08:30pm 8.6 -1.9 7.2 91 0.7 SE 52 56 28 30 1017.5 - 0.0
25/08:20pm 8.8 -2.2 7.0 88 0.9 SE 54 59 29 32 1017.5 - 0.0
25/08:10pm 9.0 -2.6 6.7 85 1.1 SE 57 59 31 32 1016.6 - 0.0
25/08:00pm 9.0 -2.6 6.7 85 1.1 SE 57 65 31 35 1016.4 - 0.0
25/07:50pm 9.0 -2.5 6.9 87 1.0 SE 57 63 31 34 1016.6 - 0.0
25/07:40pm 9.1 -2.5 6.7 85 1.2 SE 57 63 31 34 1016.4 - 0.0
25/07:30pm 9.3 -3.1 6.7 84 1.3 SE 61 67 33 36 1016.4 - 0.0
25/07:20pm 9.3 -2.3 6.7 84 1.3 SE 57 61 31 33 1015.5 - 0.0
25/07:10pm 9.3 -2.1 6.8 84 1.2 SE 56 61 30 33 1015.7 - 0.0
25/07:00pm 9.3 -2.1 6.8 84 1.2 SE 56 63 30 34 1016.3 - 0.0
25/06:50pm 9.4 -2.0 6.5 82 1.4 SE 56 61 30 33 1015.3 - 0.0
25/06:40pm 9.6 -1.9 6.4 80 1.6 SE 56 61 30 33 1015.5 - 0.0
25/06:30pm 9.7 -0.9 6.7 81 1.5 SE 52 57 28 31 1015.8 - 0.0
25/06:20pm 9.8 -0.9 6.5 80 1.6 SE 52 57 28 31 1015.0 - 0.0
25/06:10pm 9.8 -1.3 6.5 80 1.6 SE 54 59 29 32 1015.0 - 0.0
25/06:00pm 9.8 0.4 7.0 83 1.4 SE 46 52 25 28 1015.6 - 0.0
25/05:50pm 9.8 -1.6 6.5 80 1.6 SE 56 63 30 34 1014.5 - 0.0
25/05:40pm 9.9 -1.2 6.3 78 1.7 SE 54 61 29 33 1015.6 - 0.0
25/05:30pm 9.9 -2.2 6.1 77 1.8 SE 59 67 32 36 1014.5 - 0.0
25/05:20pm 10.0 -1.7 6.0 76 1.9 SE 57 63 31 34 1014.4 - 0.0
25/05:10pm 10.0 -1.7 6.2 77 1.8 SE 57 65 31 35 1015.1 - 0.0
25/05:00pm 9.9 -1.9 5.9 76 1.9 SE 57 65 31 35 1014.9 - 0.0
25/04:50pm 10.0 -1.6 6.0 76 1.9 SE 56 69 30 37 1014.0 - 0.0
25/04:40pm 10.0 -2.4 6.6 79 1.7 SE 61 63 33 34 1014.2 - 0.0
25/04:30pm 10.1 -1.6 6.1 76 1.9 SE 57 63 31 34 1013.7 - 0.0
25/04:20pm 10.3 -0.5 6.1 75 2.0 SE 52 61 28 33 1014.2 - 0.0
25/04:10pm 10.3 -1.4 6.3 76 1.9 SE 57 63 31 34 1014.7 - 0.0
25/04:00pm 10.4 -1.4 5.8 73 2.2 SE 57 63 31 34 1013.3 - 0.0
25/03:50pm 10.5 -0.3 6.0 74 2.2 SE 52 54 28 29 1014.5 - 0.0
25/03:40pm 10.6 -0.6 5.8 72 2.3 SE 54 59 29 32 1014.4 - 0.0
25/03:30pm 10.9 -0.2 6.4 74 2.2 SE 54 59 29 32 1013.8 - 0.0
25/03:20pm 11.2 0.9 6.5 73 2.3 SE 50 54 27 29 1014.4 - 0.0
25/03:10pm 11.6 2.6 7.3 75 2.2 SE 44 46 24 25 1014.8 - 0.0
25/03:00pm 11.3 2.4 7.0 75 2.1 SE 43 44 23 24 1014.8 - 0.0
25/02:50pm 10.9 1.4 6.5 74 2.2 SE 46 50 25 27 1014.8 - 0.0
25/02:40pm 10.5 -0.3 5.9 73 2.2 SE 52 56 28 30 1014.4 - 0.0
25/02:30pm 10.3 -0.9 5.7 73 2.2 SE 54 57 29 31 1013.9 - 0.0
25/02:20pm 10.1 -1.1 6.0 76 2.0 SE 54 57 29 31 1014.3 - 0.0
25/02:10pm 10.0 -1.6 5.9 75 2.0 SE 56 59 30 32 1014.2 - 0.0
25/02:00pm 10.0 -1.7 6.2 77 1.8 SE 57 59 31 32 1013.7 - 0.0
25/01:50pm 9.9 -1.6 6.2 78 1.8 SE 56 59 30 32 1013.6 - 0.0
25/01:40pm 9.7 -1.9 6.0 78 1.8 SE 56 59 30 32 1014.1 - 0.0
25/01:30pm 9.8 -0.9 6.3 79 1.7 SE 52 56 28 30 1014.0 - 0.0
25/01:20pm 9.8 0.0 6.9 82 1.4 SE 48 54 26 29 1014.4 - 0.0
25/01:10pm 9.9 0.1 7.1 83 1.4 SE 48 54 26 29 1014.5 - 0.0
25/01:00pm 9.4 -1.3 6.3 81 1.5 SE 52 56 28 30 1014.4 - 0.0
25/12:50pm 9.5 -1.3 5.8 78 1.8 SE 52 54 28 29 1014.0 - 0.0
25/12:40pm 9.4 -1.4 5.8 78 1.7 SE 52 56 28 30 1014.0 - 0.0
25/12:30pm 9.3 -2.0 5.4 76 1.8 SE 54 57 29 31 1013.9 - 0.0
25/12:20pm 9.1 -2.5 5.8 80 1.6 SE 56 59 30 32 1014.5 - 0.0
25/12:10pm 9.2 -2.0 5.8 79 1.6 SE 54 57 29 31 1014.0 - 0.0
25/12:00pm 9.3 -1.6 5.7 78 1.7 SE 52 54 28 29 1013.9 - 0.0
25/11:50am 8.9 -2.5 5.1 77 1.8 SE 54 56 29 30 1014.1 - 0.0
25/11:40am 8.6 -2.7 5.5 81 1.5 SE 54 56 29 30 1014.1 - 0.0
25/11:30am 8.3 -2.7 5.0 80 1.5 SE 52 57 28 31 1014.1 - 0.0
25/11:20am 8.2 -3.1 5.3 82 1.4 SE 54 57 29 31 1014.5 - 0.0
25/11:10am 8.0 -2.9 5.3 83 1.3 SE 52 56 28 30 1014.6 - 0.0
25/11:00am 7.7 -3.7 5.0 83 1.3 SE 54 59 29 32 1013.8 - 0.0
25/10:50am 7.5 -4.3 4.7 82 1.3 SE 56 59 30 32 1014.1 - 0.0
25/10:40am 7.6 -3.4 4.9 83 1.2 SE 52 56 28 30 1014.1 - 0.0
25/10:30am 7.1 -4.3 4.8 85 1.1 SE 54 56 29 30 1014.0 - 0.0
25/10:20am 6.8 -4.6 5.0 88 0.8 SE 54 57 29 31 1014.1 - 0.0
25/10:10am 6.7 -5.1 4.9 88 0.8 SE 56 57 30 31 1013.6 - 0.0
25/10:00am 6.5 -5.3 4.8 89 0.8 SE 56 57 30 31 1013.2 - 9.8
25/09:50am 6.3 -5.1 5.1 92 0.6 SE 54 56 29 30 1013.2 - 9.8
25/09:40am 6.2 -4.8 5.1 93 0.5 SE 52 56 28 30 1013.0 - 9.8
25/09:30am 6.0 -4.9 5.4 96 0.3 SE 52 57 28 31 1013.5 - 9.8
25/09:20am 6.0 -4.9 5.5 97 0.2 SE 52 56 28 30 1013.4 - 9.8
25/09:10am 5.9 -5.0 5.6 98 0.1 SE 52 57 28 31 1013.0 - 9.8
25/09:00am 5.9 -5.3 5.7 99 0.1 SE 54 57 29 31 1012.6 - 9.8
25/08:50am 5.7 -5.6 5.2 97 0.2 SE 54 59 29 32 1012.5 - 9.8
25/08:40am 5.3 -6.4 5.3 100 0.0 SE 56 59 30 32 1012.2 - 9.8
25/08:30am 5.1 -5.9 5.1 100 0.0 SE 52 59 28 32 1012.2 - 9.8
25/08:20am 4.8 - 5.0 - - SE 50 56 27 30 1012.2 - 9.8
25/08:10am 4.6 - 4.7 - - SE 48 52 26 28 1012.2 - 9.8
25/08:00am 4.5 - 4.6 - - SE 52 56 28 30 1012.1 - 9.8
25/07:50am 4.5 - 4.6 - - SE 50 52 27 28 1012.0 - 9.6
25/07:40am 4.5 - 4.6 - - SE 50 56 27 30 1011.8 - 9.6
25/07:30am 4.7 -6.0 4.7 100 0.0 SE 50 54 27 29 1011.9 - 9.6
25/07:20am 5.0 -6.0 5.0 100 0.0 SE 52 56 28 30 1011.6 - 9.6
25/07:10am 5.2 -5.4 5.2 100 0.0 SE 50 52 27 28 1011.4 - 9.6
25/07:00am 5.6 -3.8 5.6 100 0.0 SE 44 48 24 26 1011.0 - 9.6
25/06:50am 5.7 - 5.8 - - SE 46 48 25 26 1010.8 - 9.6
25/06:40am 5.9 - 6.0 - - SE 43 44 23 24 1010.9 - 9.6
25/06:30am 6.0 - 6.1 - - SE 41 43 22 23 1011.2 - 9.6
25/06:20am 6.2 - 6.3 - - SE 43 46 23 25 1010.7 - 9.6
25/06:10am 6.5 - 6.6 - - SE 41 44 22 24 1010.4 - 9.6
25/06:00am 6.6 -2.4 6.6 100 0.0 SE 43 46 23 25 1010.4 - 9.4
25/05:50am 6.7 -2.4 6.7 100 0.0 SE 44 48 24 26 1010.2 - 9.4
25/05:40am 6.8 -1.3 6.8 100 0.0 SE 39 41 21 22 1010.1 - 9.4
25/05:30am 6.8 -1.7 6.8 100 0.0 SE 41 43 22 23 1010.0 - 9.4
25/05:20am 6.8 - 6.9 - - SE 41 43 22 23 1009.9 - 9.4
25/05:10am 6.9 -1.2 6.9 100 0.0 SE 39 41 21 22 1009.5 - 9.4
25/05:00am 6.9 -1.2 6.9 100 0.0 SE 39 44 21 24 1009.5 - 9.4
25/04:50am 6.9 -1.2 6.9 100 0.0 SE 39 43 21 23 1009.1 - 9.4
25/04:40am 6.9 -0.8 6.9 100 0.0 SE 37 37 20 20 1009.3 - 9.2
25/04:30am 6.9 -1.2 6.9 100 0.0 SE 39 41 21 22 1009.1 - 9.2
25/04:20am 6.9 - 7.0 - - SE 37 39 20 21 1009.1 - 9.0
25/04:10am 6.9 -1.2 6.9 100 0.0 SE 39 41 21 22 1008.9 - 9.0
25/04:00am 6.9 -0.5 6.9 100 0.0 SE 35 37 19 20 1009.0 - 9.0
25/03:50am 6.9 - 7.0 - - SE 35 39 19 21 1008.9 - 8.8
25/03:40am 6.9 -1.2 6.9 100 0.0 SE 39 41 21 22 1008.8 - 8.8
25/03:30am 6.9 -0.8 6.9 100 0.0 SE 37 41 20 22 1008.6 - 8.8
25/03:20am 6.9 - 7.0 - - SE 39 41 21 22 1008.8 - 8.8
25/03:10am 7.0 -1.1 7.0 100 0.0 SE 39 43 21 23 1008.7 - 8.6
25/03:00am 7.0 - 7.1 - - SE 41 43 22 23 1008.4 - 8.6
25/02:50am 7.2 -1.2 7.2 100 0.0 SE 41 43 22 23 1008.6 - 8.6
25/02:40am 7.4 -0.7 7.2 99 0.1 SE 39 41 21 22 1008.5 - 8.6
25/02:30am 7.6 -0.9 7.0 96 0.3 SE 41 43 22 23 1008.3 - 8.6
25/02:20am 7.8 -0.3 6.8 93 0.5 SE 39 43 21 23 1008.4 - 8.6
25/02:10am 7.9 -0.6 6.9 93 0.5 SE 41 44 22 24 1008.2 - 8.6
25/02:00am 8.0 -0.1 6.8 92 0.6 SE 39 41 21 22 1008.3 - 8.6
25/01:50am 8.0 0.7 7.1 94 0.4 SE 35 39 19 21 1008.3 - 8.6
25/01:40am 8.1 0.8 7.3 95 0.4 SE 35 37 19 20 1008.5 - 8.6
25/01:30am 8.1 0.8 7.4 95 0.3 SE 35 37 19 20 1008.5 - 8.6
25/01:20am 8.2 0.9 7.4 95 0.4 SE 35 39 19 21 1008.5 - 8.6
25/01:10am 8.2 0.6 7.4 95 0.4 SE 37 39 20 21 1008.2 - 8.6
25/01:00am 8.3 0.3 7.5 95 0.4 SE 39 41 21 22 1008.4 - 8.6
25/12:50am 8.4 0.4 7.6 95 0.4 SE 39 46 21 25 1008.2 - 8.6
25/12:40am 8.5 0.9 7.7 95 0.4 SSE 37 41 20 22 1008.1 - 8.6
25/12:30am 8.6 0.3 7.8 95 0.4 SSE 41 44 22 24 1008.4 - 8.6
25/12:20am 8.8 0.9 7.8 93 0.5 SSE 39 43 21 23 1007.9 - 8.6
25/12:10am 8.9 1.1 8.2 95 0.4 SSE 39 43 21 23 1008.2 - 8.6
25/12:00am 9.0 1.2 8.3 95 0.4 SSE 39 44 21 24 1008.0 - 8.6
 
Date/Time
EDT
Temp
°C
App
Temp
°C
Dew
Point
°C
Rel
Hum
%
Delta-T
°C
Wind Press
QNH
hPa
Press
MSL
hPa
Rain since
9am
mm
Dir  Spd
km/h
Gust
km/h
Spd
kts
Gust
kts
24/11:50pm 9.1 1.8 8.7 97 0.2 SSE 37 41 20 22 1008.1 - 8.6
24/11:40pm 9.1 2.2 8.7 97 0.2 SSE 35 44 19 24 1007.9 - 8.6
24/11:30pm 9.2 1.2 9.0 99 0.1 SSE 41 43 22 23 1008.1 - 8.6
24/11:20pm 9.4 - 9.5 - - SSE 39 43 21 23 1008.0 - 8.6
24/11:10pm 9.5 - 9.6 - - SSE 32 37 17 20 1008.1 - 8.6
24/11:00pm 9.6 - 9.7 - - SSE 32 33 17 18 1008.4 - 8.6
24/10:50pm 9.7 - 9.8 - - SSE 35 37 19 20 1008.2 - 8.6
24/10:40pm 9.9 - 10.0 - - SSE 37 41 20 22 1007.9 - 8.6
24/10:30pm 10.2 - 10.3 - - SSE 39 43 21 23 1007.6 - 8.6
24/10:20pm 11.6 6.8 11.6 100 0.0 S 28 44 15 24 1007.4 - 8.6
24/10:10pm 12.6 - 12.7 - - WNW 19 20 10 11 1007.7 - 8.6
24/10:00pm 12.6 - 12.7 - - WNW 20 20 11 11 1007.5 - 8.6
24/09:50pm 12.7 - 12.8 - - WNW 20 22 11 12 1007.2 - 8.6
24/09:40pm 13.0 - 13.1 - - WNW 19 22 10 12 1007.3 - 8.6
24/09:30pm 13.1 - 13.2 - - WNW 19 19 10 10 1007.2 - 8.6
24/09:20pm 12.9 - 13.0 - - NW 20 22 11 12 1007.2 - 8.6
24/09:10pm 12.7 - 12.8 - - NW 20 22 11 12 1006.9 - 8.6
24/09:00pm 12.8 9.9 12.8 100 0.0 NW 20 22 11 12 1006.8 - 8.6
24/08:50pm 12.9 - 13.0 - - NW 20 22 11 12 1006.8 - 8.6
24/08:40pm 13.0 - 13.1 - - NNW 20 22 11 12 1006.6 - 8.6
24/08:30pm 13.5 - 13.6 - - NNW 22 24 12 13 1006.5 - 8.6
24/08:20pm 13.8 - 13.9 - - NNW 20 26 11 14 1006.0 - 8.4
24/08:10pm 13.8 11.2 13.8 100 0.0 NNW 20 24 11 13 1006.0 - 8.4
24/08:00pm 14.2 12.3 14.2 100 0.0 WNW 17 19 9 10 1006.1 - 8.4
24/07:50pm 14.3 - 14.4 - - WNW 19 20 10 11 1006.0 - 8.4
24/07:40pm 14.4 - 14.5 - - NW 13 15 7 8 1005.8 - 8.2
24/07:30pm 14.3 - 14.4 - - NNE 6 7 3 4 1005.7 - 8.2
24/07:20pm 14.3 - 14.4 - - E 7 9 4 5 1005.3 - 8.0
24/07:10pm 14.3 - 14.4 - - E 6 9 3 5 1004.9 - 8.0
24/07:00pm 14.6 - 14.7 - - N 15 22 8 12 1005.1 - 7.8
24/06:50pm 14.7 - 14.8 - - NW 15 22 8 12 1005.7 - 7.2
24/06:40pm 14.6 - 14.8 - - NNW 19 22 10 12 1005.7 - 6.6
24/06:30pm 14.9 - 15.1 - - NNW 22 28 12 15 1005.3 - 5.8
24/06:20pm 15.3 - 15.4 - - WNW 13 17 7 9 1005.3 - 5.0
24/06:10pm 15.5 15.5 15.3 99 0.1 W 9 11 5 6 1005.0 - 4.8
24/06:00pm 15.7 16.7 15.3 97 0.2 WNW 4 7 2 4 1004.8 - 4.8
24/05:50pm 15.9 16.3 15.3 96 0.4 NNW 7 9 4 5 1004.6 - 4.8
24/05:40pm 16.2 16.5 16.0 99 0.1 NW 9 9 5 5 1004.7 - 4.8
24/05:30pm 16.5 16.9 15.4 93 0.7 NW 7 9 4 5 1004.6 - 4.8
24/05:20pm 16.6 17.2 15.9 96 0.4 NNW 7 7 4 4 1004.4 - 4.6
24/05:10pm 16.8 17.4 15.7 93 0.7 NNW 7 9 4 5 1004.3 - 4.6
24/05:00pm 17.0 17.4 15.2 89 1.1 N 7 9 4 5 1004.3 - 4.6
24/04:50pm 17.1 17.3 14.8 86 1.4 NW 7 11 4 6 1004.0 - 4.6
24/04:40pm 17.0 16.9 15.0 88 1.2 NW 9 11 5 6 1004.1 - 4.6
24/04:30pm 16.3 15.9 14.1 87 1.3 WNW 9 11 5 6 1004.0 - 4.6
24/04:20pm 15.8 15.2 14.7 93 0.7 NW 11 15 6 8 1004.1 - 4.6
24/04:10pm 16.0 14.9 15.2 95 0.5 NW 15 17 8 9 1004.1 - 4.6
24/04:00pm 16.2 14.6 13.8 86 1.4 WNW 15 19 8 10 1004.2 - 4.4
24/03:50pm 16.3 14.8 14.1 87 1.3 WNW 15 19 8 10 1004.3 - 4.2
24/03:40pm 16.6 15.6 15.6 94 0.6 WNW 15 20 8 11 1004.5 - 4.2
24/03:30pm 16.6 15.2 15.5 93 0.7 WNW 17 20 9 11 1004.7 - 4.0
24/03:20pm 16.7 14.9 15.4 92 0.8 WNW 19 22 10 12 1004.5 - 4.0
24/03:10pm 16.7 14.7 15.5 93 0.7 WNW 20 26 11 14 1004.9 - 4.0
24/03:00pm 16.9 13.8 15.7 93 0.7 WNW 26 28 14 15 1005.0 - 4.0
24/02:50pm 17.0 14.4 15.8 93 0.7 WNW 24 28 13 15 1004.6 - 4.0
24/02:40pm 17.0 14.3 15.7 92 0.8 NW 24 26 13 14 1004.7 - 4.0
24/02:30pm 17.2 15.0 15.9 92 0.8 NW 22 26 12 14 1004.9 - 4.0
24/02:20pm 17.3 14.7 15.8 91 0.9 NW 24 30 13 16 1005.0 - 4.0
24/02:10pm 17.6 13.8 15.7 89 1.2 WNW 30 33 16 18 1005.1 - 4.0
24/02:00pm 17.6 13.3 15.4 87 1.3 WNW 32 35 17 19 1005.2 - 4.0
24/01:50pm 17.5 13.3 15.7 89 1.1 WNW 32 33 17 18 1005.3 - 4.0
24/01:40pm 17.4 13.0 15.2 87 1.3 WNW 32 35 17 19 1005.5 - 4.0
24/01:30pm 17.1 12.6 15.0 87 1.3 W 32 37 17 20 1005.7 - 4.0
24/01:20pm 17.3 14.1 15.4 88 1.1 W 26 30 14 16 1005.6 - 4.0
24/01:10pm 17.6 14.9 15.7 89 1.2 W 24 28 13 15 1005.9 - 4.0
24/01:00pm 17.9 14.5 15.9 88 1.2 WNW 28 32 15 17 1006.0 - 4.0
24/12:50pm 17.9 13.6 15.9 88 1.2 WNW 33 39 18 21 1006.1 - 4.0
24/12:40pm 17.8 12.9 15.2 85 1.6 NW 35 41 19 22 1005.9 - 4.0
24/12:30pm 17.4 14.2 16.2 93 0.7 NW 28 35 15 19 1006.5 - 4.0
24/12:20pm 17.2 13.3 16.5 96 0.4 NW 32 39 17 21 1006.5 - 4.0
24/12:10pm 16.5 - 16.6 - - NW 28 33 15 18 1006.5 - 3.8
24/12:00pm 16.0 - 16.3 - - NW 24 30 13 16 1006.4 - 3.8
24/11:50am 15.7 - 16.0 - - NW 30 35 16 19 1006.6 - 3.8
24/11:40am 16.0 - 16.2 - - NW 32 37 17 20 1006.5 - 3.8
24/11:30am 16.1 - 16.4 - - NW 33 41 18 22 1006.6 - 3.4
24/11:20am 15.8 - 16.2 - - NW 35 37 19 20 1006.5 - 3.2
24/11:10am 15.7 - 16.1 - - NW 35 41 19 22 1006.6 - 3.2
24/11:00am 15.6 - 16.0 - - NW 39 46 21 25 1006.8 - 3.2
24/10:50am 15.7 - 16.1 - - NW 43 46 23 25 1006.5 - 3.0
24/10:40am 15.8 - 16.3 - - NW 46 52 25 28 1006.7 - 2.8
24/10:30am 15.5 - 15.8 - - NW 43 52 23 28 1006.2 - 2.6
24/10:20am 15.3 - 15.5 - - NW 39 48 21 26 1006.5 - 2.2
24/10:10am 15.3 - 15.5 - - NNW 44 48 24 26 1006.5 - 1.4
24/10:00am 15.4 - 15.6 - - NW 39 41 21 22 1006.5 - 19.6
24/09:50am 15.3 - 15.6 - - NW 32 37 17 20 1006.8 - 18.4
24/09:40am 15.4 - 15.6 - - NW 30 32 16 17 1006.9 - 18.0
24/09:30am 15.3 - 15.5 - - NW 35 41 19 22 1007.0 - 17.8
24/09:20am 15.2 - 15.4 - - NW 35 39 19 21 1006.7 - 17.8
24/09:10am 15.1 - 15.3 - - NW 33 37 18 20 1007.2 - 17.6
24/09:00am 15.1 - 15.2 - - NW 37 41 20 22 1007.2 - 17.4
24/08:50am 15.2 - 15.4 - - NNW 30 33 16 18 1007.0 - 16.0
24/08:40am 15.4 - 15.5 - - NNW 30 35 16 19 1007.0 - 15.0
24/08:30am 15.4 - 15.5 - - NW 33 39 18 21 1007.1 - 15.0
24/08:20am 15.5 11.0 15.4 99 0.1 NNW 33 39 18 21 1007.0 - 14.8
24/08:10am 15.4 - 15.6 - - NNW 30 39 16 21 1007.0 - 14.6
24/08:00am 15.3 - 15.4 - - NNW 22 24 12 13 1007.3 - 14.6
24/07:50am 15.2 - 15.3 - - NW 19 22 10 12 - - 14.6
24/07:40am 15.2 13.1 15.2 100 0.0 NW 20 22 11 12 - - 14.6
24/07:30am 15.1 - 15.2 - - NW 22 24 12 13 - - 14.6
24/07:20am 15.1 12.6 15.1 100 0.0 NW 22 28 12 15 - - 14.6
24/07:10am 14.9 - 15.0 - - NW 24 28 13 15 - - 14.6
24/07:00am 14.8 - 14.9 - - NW 22 24 12 13 - - 14.6
24/06:50am 14.8 - 14.9 - - NW 22 26 12 14 - - 14.6
24/06:40am 14.8 - 14.9 - - NW 26 30 14 16 - - 14.6
24/06:30am 14.8 10.7 14.8 100 0.0 NW 30 32 16 17 - - 14.6
24/06:20am 14.7 - 14.8 - - NW 30 33 16 18 - - 14.6
24/06:10am 14.7 11.3 14.7 100 0.0 NW 26 30 14 16 - - 14.6
24/06:00am 14.7 11.7 14.7 100 0.0 NW 24 28 13 15 - - 14.6
24/05:50am 14.6 - 14.7 - - NW 26 30 14 16 - - 14.6
24/05:40am 14.6 11.9 14.6 100 0.0 NW 22 26 12 14 - - 14.6
24/05:30am 14.6 11.5 14.6 100 0.0 NW 24 26 13 14 - - 14.6
24/05:20am 14.5 - 14.6 - - NW 24 26 13 14 1006.6 - 14.6
24/05:10am 14.5 - 14.6 - - WNW 22 26 12 14 1006.6 - 14.6
24/05:00am 14.5 - 14.6 - - NW 24 26 13 14 1006.7 - 14.6
24/04:50am 14.6 11.9 14.6 100 0.0 NW 22 28 12 15 1006.6 - 14.6
24/04:40am 14.6 - 14.7 - - NW 20 24 11 13 1006.9 - 14.4
24/04:30am 14.7 12.0 14.7 100 0.0 NW 22 26 12 14 1007.0 - 14.0
24/04:20am 14.8 - 14.9 - - NW 26 30 14 16 1007.2 - 13.6
24/04:10am 14.8 11.8 14.8 100 0.0 NNW 24 26 13 14 1007.3 - 13.6
24/04:00am 14.9 - 15.0 - - NW 26 32 14 17 - - 13.4
24/03:50am 14.9 11.2 14.9 100 0.0 NW 28 35 15 19 - - 13.4
24/03:40am 14.5 12.3 14.5 100 0.0 NW 19 20 10 11 - - 13.4
24/03:30am 14.4 - 14.5 - - NW 20 22 11 12 - - 13.4
24/03:20am 14.4 - 14.5 - - NW 19 20 10 11 - - 13.4
24/03:10am 14.4 - 14.5 - - NW 20 24 11 13 - - 13.4
24/03:00am 14.4 - 14.5 - - NW 20 22 11 12 - - 13.4
24/02:50am 14.4 - 14.5 - - NW 19 22 10 12 - - 13.4
24/02:40am 14.5 13.1 14.5 100 0.0 NW 15 17 8 9 - - 13.4
24/02:30am 14.5 - 14.6 - - NW 13 15 7 8 1008.6 - 13.4
24/02:20am 14.6 - 14.7 - - NNW 15 19 8 10 1008.8 - 13.2
24/02:10am 14.6 - 14.7 - - NNW 13 15 7 8 - - 12.6
24/02:00am 14.9 - 15.0 - - NNW 17 22 9 12 - - 12.2
24/01:50am 15.0 12.8 15.0 100 0.0 N 20 24 11 13 - - 12.0
24/01:40am 14.8 12.7 14.8 100 0.0 NNE 19 24 10 13 - - 12.0
24/01:30am 14.4 14.5 14.4 100 0.0 E 7 13 4 7 - - 12.0
24/01:20am 14.3 14.0 14.3 100 0.0 ESE 9 17 5 9 - - 12.0
24/01:10am 14.3 14.3 14.3 100 0.0 ESE 7 11 4 6 - - 12.0
24/01:00am 14.4 14.7 14.4 100 0.0 ENE 6 7 3 4 - - 12.0
24/12:50am 14.3 - 14.4 - - E 2 6 1 3 - - 11.6
24/12:40am 14.3 14.9 14.3 100 0.0 ESE 4 7 2 4 - - 11.2
24/12:30am 14.3 14.0 14.3 100 0.0 ESE 9 11 5 6 - - 11.2
24/12:20am 14.3 - 14.4 - - ESE 11 13 6 7 - - 11.2
24/12:10am 14.3 - 14.4 - - ESE 11 11 6 6 - - 11.2
24/12:00am 14.4 - 14.5 - - ESE 11 13 6 7 - - 11.2
 
Date/Time
EDT
Temp
°C
App
Temp
°C
Dew
Point
°C
Rel
Hum
%
Delta-T
°C
Wind Press
QNH
hPa
Press
MSL
hPa
Rain since
9am
mm
Dir  Spd
km/h
Gust
km/h
Spd
kts
Gust
kts
23/11:50pm 14.6 14.8 14.6 100 0.0 E 7 11 4 6 - - 11.0
23/11:40pm 14.7 - 14.8 - - NNE 9 15 5 8 - - 10.8
23/11:30pm 14.6 - 14.7 - - NNE 15 19 8 10 - - 9.8
23/11:20pm 14.8 13.5 14.8 100 0.0 NNE 15 17 8 9 1011.2 - 8.8
23/11:10pm 14.9 14.4 14.9 100 0.0 NNW 11 13 6 7 1010.9 - 8.0
23/11:00pm 15.0 14.1 14.8 99 0.1 W 13 15 7 8 - - 7.4
23/10:50pm 15.2 15.0 14.6 96 0.4 WSW 9 13 5 7 - - 6.8
23/10:40pm 15.2 15.3 14.0 92 0.7 SSE 6 7 3 4 1010.5 - 6.6
23/10:30pm 15.3 15.6 14.5 95 0.5 SSE 6 7 3 4 1010.5 - 6.6
23/10:20pm 15.5 15.6 14.4 93 0.6 SSE 7 7 4 4 1010.6 - 6.0
23/10:10pm 16.2 15.9 13.2 82 1.7 SSE 7 9 4 5 1010.6 - 6.0
23/10:00pm 15.5 14.8 13.3 87 1.3 SSE 9 11 5 6 1010.5 - 6.0
23/09:50pm 15.3 14.6 14.2 93 0.6 SSE 11 11 6 6 1010.5 - 6.0
23/09:40pm 15.4 14.9 13.9 91 0.9 SSE 9 11 5 6 1010.6 - 6.0
23/09:30pm 15.4 14.6 14.0 91 0.8 SSE 11 11 6 6 1010.7 - 6.0
23/09:20pm 15.7 15.4 14.3 91 0.8 ESE 9 11 5 6 1010.8 - 6.0
23/09:10pm 16.8 17.1 13.3 80 2.0 W 4 7 2 4 1011.0 - 6.0
23/09:00pm 16.8 16.6 13.5 81 1.9 WNW 7 9 4 5 1011.0 - 6.0
23/08:50pm 16.7 15.1 12.9 78 2.2 W 13 17 7 9 1010.9 - 6.0
23/08:40pm 16.2 13.7 13.6 84 1.5 W 19 20 10 11 1010.9 - 6.0
23/08:30pm 15.5 13.6 14.1 91 0.8 WNW 17 20 9 11 1011.0 - 6.0
23/08:20pm 15.3 13.1 14.3 94 0.6 WNW 19 22 10 12 1010.8 - 6.0
23/08:10pm 14.8 12.5 14.2 96 0.4 WNW 19 20 10 11 1011.3 - 6.0
23/08:00pm 15.1 10.8 14.3 95 0.5 NW 30 39 16 21 1011.9 - 4.8
23/07:50pm 16.0 10.8 14.5 91 0.9 W 35 39 19 21 1012.0 - 2.4
23/07:40pm 16.3 8.7 14.6 90 1.0 WNW 48 61 26 33 1011.2 - 1.8
23/07:30pm 19.6 13.1 14.1 70 3.3 WNW 41 54 22 29 1011.2 - 0.0
23/07:20pm 21.3 17.4 12.0 55 5.4 NNW 24 37 13 20 1010.2 - 0.0
23/07:10pm 21.5 19.1 12.8 57 5.1 N 17 19 9 10 1010.1 - 0.0
23/07:00pm 21.6 19.6 12.6 56 5.3 N 15 15 8 8 1010.0 - 0.0
23/06:50pm 21.7 20.0 12.6 56 5.3 N 13 15 7 8 1010.0 - 0.0
23/06:40pm 21.6 20.0 12.8 57 5.2 NNW 13 15 7 8 1010.1 - 0.0
23/06:30pm 21.7 20.1 12.7 56 5.3 NNW 13 15 7 8 1010.2 - 0.0
23/06:20pm 21.8 19.5 13.0 57 5.2 NNW 17 19 9 10 1010.2 - 0.0
23/06:10pm 21.9 19.6 13.0 57 5.3 NNW 17 17 9 9 1010.3 - 0.0
23/06:00pm 22.1 19.7 12.6 55 5.6 NNW 17 20 9 11 1010.2 - 0.0
23/05:50pm 22.2 19.3 12.4 53 5.8 NNW 19 20 10 11 1010.3 - 0.0
23/05:40pm 22.2 19.1 12.3 53 5.8 NNW 20 22 11 12 1010.3 - 0.0
23/05:30pm 22.3 18.8 12.3 53 5.9 NNW 22 26 12 14 1010.2 - 0.0
23/05:20pm 22.5 18.8 12.8 54 5.7 NNW 24 28 13 15 1010.4 - 0.0
23/05:10pm 22.7 19.9 13.3 55 5.6 NNW 20 24 11 13 1010.3 - 0.0
23/05:00pm 22.8 18.3 12.6 52 6.0 NNW 28 32 15 17 1010.3 - 0.0
23/04:50pm 23.0 18.5 12.5 51 6.2 NNW 28 32 15 17 1010.2 - 0.0
23/04:40pm 22.9 17.6 11.4 48 6.7 N 30 35 16 19 1010.3 - 0.0
23/04:30pm 23.0 18.1 12.6 52 6.1 N 30 35 16 19 1010.4 - 0.0
23/04:20pm 23.3 17.7 11.5 47 6.9 NNW 32 35 17 19 1010.5 - 0.0
23/04:10pm 23.7 17.8 10.6 43 7.5 N 32 35 17 19 1010.5 - 0.0
23/04:00pm 24.0 18.3 11.0 44 7.5 NNW 32 33 17 18 1010.6 - 0.0
23/03:50pm 23.9 18.6 12.4 48 6.8 N 32 35 17 19 1010.6 - 0.0
23/03:40pm 23.9 18.6 11.2 44 7.4 NNW 30 35 16 19 1010.7 - 0.0
23/03:30pm 24.2 19.2 10.9 43 7.7 N 28 41 15 22 1011.0 - 0.0
23/03:20pm 23.7 17.9 11.4 46 7.1 N 33 37 18 20 1011.2 - 0.0
23/03:10pm 23.7 19.1 12.2 48 6.8 NNW 28 35 15 19 1011.3 - 0.0
23/03:00pm 23.8 19.3 12.5 49 6.7 NNW 28 35 15 19 1011.6 - 0.0
23/02:50pm 24.0 19.6 13.0 50 6.6 NNW 28 39 15 21 1011.9 - 0.0
23/02:40pm 23.5 18.3 12.9 51 6.3 NW 32 37 17 20 1012.1 - 0.0
23/02:30pm 23.6 20.1 13.3 52 6.2 NNW 24 30 13 16 1012.3 - 0.0
23/02:20pm 23.1 20.5 14.8 59 5.1 NNW 22 28 12 15 1012.4 - 0.0
23/02:10pm 23.1 21.1 14.9 60 5.0 NW 19 22 10 12 1012.5 - 0.0
23/02:00pm 23.4 21.4 15.6 61 4.8 NW 20 22 11 12 1012.7 - 0.0
23/01:50pm 22.7 20.6 14.7 60 4.9 NNW 19 22 10 12 1012.8 - 0.0
23/01:40pm 23.4 22.1 14.8 58 5.3 NNW 15 19 8 10 1012.9 - 0.0
23/01:30pm 22.7 21.5 15.0 61 4.7 NW 15 24 8 13 1013.1 - 0.0
23/01:20pm 21.8 19.2 14.9 65 4.2 NW 22 26 12 14 1013.2 - 0.0
23/01:10pm 22.3 20.0 14.6 61 4.7 NW 20 24 11 13 1013.5 - 0.0
23/01:00pm 21.5 19.5 14.9 66 4.0 NW 19 22 10 12 1013.8 - 0.0
23/12:50pm 21.6 20.1 15.2 67 3.9 NW 17 20 9 11 1014.0 - 0.0
23/12:40pm 21.8 19.4 15.4 67 3.9 NW 22 30 12 16 1014.2 - 0.0
23/12:30pm 22.1 19.9 14.8 63 4.5 NW 20 24 11 13 1014.3 - 0.0
23/12:20pm 21.7 19.6 14.7 64 4.3 NNW 19 24 10 13 1014.5 - 0.0
23/12:10pm 21.4 19.4 14.9 66 4.0 NW 19 24 10 13 1014.8 - 0.0
23/12:00pm 21.0 19.5 15.3 70 3.5 NW 17 24 9 13 1014.9 - 0.0
23/11:50am 20.7 19.0 14.7 68 3.6 NW 17 20 9 11 1015.0 - 0.0
23/11:40am 19.9 17.5 13.8 68 3.6 NW 19 22 10 12 1015.0 - 0.0
23/11:30am 20.3 18.6 14.6 70 3.4 NW 17 22 9 12 1015.2 - 0.0
23/11:20am 20.4 18.0 13.8 66 3.9 NNW 19 24 10 13 1015.2 - 0.0
23/11:10am 20.2 17.8 13.7 66 3.9 NW 19 24 10 13 1015.3 - 0.0
23/11:00am 20.0 18.6 14.4 70 3.4 NW 15 19 8 10 1015.4 - 0.0
23/10:50am 20.4 19.9 13.7 65 4.0 NNW 9 19 5 10 1015.4 - 0.0
23/10:40am 20.4 20.5 14.5 69 3.6 N 7 11 4 6 1015.5 - 0.0
23/10:30am 20.2 20.3 14.0 67 3.7 ENE 6 7 3 4 1015.5 - 0.0
23/10:20am 20.0 20.7 15.5 75 2.8 E 6 7 3 4 1015.6 - 0.0
23/10:10am 19.6 19.9 14.6 73 3.0 ENE 6 9 3 5 1015.7 - 0.0
23/10:00am 18.9 18.5 14.2 74 2.8 E 9 11 5 6 1015.7 - 0.0
23/09:50am 18.3 18.6 14.9 80 2.0 ESE 7 11 4 6 1015.8 - 0.0
23/09:40am 18.0 17.4 14.5 80 2.1 ESE 11 13 6 7 1015.7 - 0.0
23/09:30am 17.7 17.7 15.3 86 1.5 SE 9 11 5 6 1015.8 - 0.0
23/09:20am 17.3 16.9 14.0 81 1.9 SE 9 11 5 6 1015.9 - 0.0
23/09:10am 16.9 16.4 13.9 82 1.8 ESE 9 11 5 6 1016.1 - 0.0
23/09:00am 16.6 16.3 14.5 87 1.2 SE 9 11 5 6 1016.1 - 0.0
23/08:50am 16.2 15.9 14.5 90 1.0 SE 9 11 5 6 1016.3 - 0.0
23/08:40am 15.8 15.5 14.3 91 0.9 SE 9 11 5 6 1016.3 - 0.0
23/08:30am 15.4 14.9 14.8 96 0.4 SE 11 11 6 6 1016.2 - 0.0
23/08:20am 15.0 13.8 13.9 93 0.6 SE 13 15 7 8 1016.1 - 0.0
23/08:10am 14.7 13.3 13.4 92 0.7 SE 13 15 7 8 1016.0 - 0.0
23/08:00am 14.5 12.9 12.8 89 1.0 SE 13 13 7 7 1015.9 - 0.0
23/07:50am 14.3 12.7 12.9 91 0.8 SE 13 15 7 8 1015.9 - 0.0
23/07:40am 14.2 12.7 13.2 94 0.6 SSE 13 17 7 9 1015.8 - 0.0
23/07:30am 14.1 12.2 12.9 92 0.7 SSE 15 15 8 8 1015.7 - 0.0
23/07:20am 13.8 11.9 12.9 94 0.5 SSE 15 19 8 10 1015.7 - 0.0
23/07:10am 13.3 10.9 12.6 95 0.4 S 17 19 9 10 1015.7 - 0.0
23/07:00am 13.3 11.3 12.7 96 0.3 SSE 15 17 8 9 1015.8 - 0.0
23/06:50am 13.4 11.4 12.8 96 0.3 SSE 15 17 8 9 1015.7 - 0.0
23/06:40am 13.2 11.2 12.7 97 0.3 S 15 17 8 9 1015.5 - 0.0
23/06:30am 13.2 11.6 12.7 97 0.3 SSE 13 17 7 9 1015.5 - 0.0
23/06:20am 13.0 10.6 12.8 99 0.1 SSE 17 17 9 9 1015.4 - 0.0
23/06:10am 13.0 11.0 12.7 98 0.2 SSE 15 17 8 9 1015.1 - 0.0
23/06:00am 13.0 11.0 12.8 99 0.1 SSE 15 15 8 8 1015.1 - 0.0
23/05:50am 13.1 11.2 12.9 99 0.1 SSE 15 15 8 8 1015.0 - 0.0
23/05:40am 13.1 11.1 12.8 98 0.2 SSE 15 17 8 9 1015.0 - 0.0
23/05:30am 13.2 11.3 12.9 98 0.2 SSE 15 17 8 9 1014.8 - 0.0
23/05:20am 13.3 11.7 12.9 97 0.2 SSE 13 15 7 8 1014.8 - 0.0
23/05:10am 13.4 11.8 12.9 97 0.3 SSE 13 13 7 7 1014.9 - 0.0
23/05:00am 13.5 11.6 12.9 96 0.3 SSE 15 15 8 8 1014.9 - 0.0
23/04:50am 13.4 11.5 13.0 97 0.2 S 15 17 8 9 1014.9 - 0.0
23/04:40am 13.3 11.4 13.0 98 0.2 S 15 17 8 9 1015.1 - 0.0
23/04:30am 13.2 11.3 13.0 99 0.1 SSE 15 17 8 9 1015.0 - 0.0
23/04:20am 13.5 11.6 13.0 97 0.3 SSE 15 15 8 8 1015.1 - 0.0
23/04:10am 13.6 11.7 13.0 96 0.3 S 15 15 8 8 1015.3 - 0.0
23/04:00am 13.6 11.3 13.0 96 0.3 S 17 19 9 10 1015.1 - 0.0
23/03:50am 13.7 11.0 13.0 96 0.4 S 19 19 10 10 1015.0 - 0.0
23/03:40am 13.6 10.9 13.0 96 0.3 SSE 19 19 10 10 1015.0 - 0.0
23/03:30am 13.6 10.7 13.0 96 0.3 S 20 22 11 12 1014.9 - 0.0
23/03:20am 13.5 10.6 13.0 97 0.3 SSE 20 20 11 11 1015.0 - 0.0
23/03:10am 13.5 10.3 13.0 97 0.3 SSE 22 24 12 13 1014.7 - 0.0
23/03:00am 13.6 10.0 13.0 96 0.3 SSE 24 24 13 13 1014.8 - 0.0
23/02:50am 13.6 10.4 13.0 96 0.3 SSE 22 24 12 13 1014.8 - 0.0
23/02:40am 13.5 10.3 13.1 97 0.2 SSE 22 24 12 13 1014.7 - 0.0
23/02:30am 13.6 10.4 13.1 97 0.3 SSE 22 24 12 13 1014.8 - 0.0
23/02:20am 13.7 10.1 13.1 96 0.3 SSE 24 26 13 14 1014.7 - 0.0
23/02:10am 13.7 10.1 13.0 96 0.4 SSE 24 26 13 14 1014.6 - 0.0
23/02:00am 13.8 10.2 13.0 95 0.5 SSE 24 24 13 13 1014.8 - 0.0
23/01:50am 13.9 10.3 13.1 95 0.5 SSE 24 26 13 14 1015.0 - 0.0
23/01:40am 14.0 10.8 13.1 94 0.5 SSE 22 24 12 13 1015.4 - 0.0
23/01:30am 14.0 10.8 13.0 94 0.6 SSE 22 24 12 13 1015.5 - 0.0
23/01:20am 14.1 11.3 13.1 94 0.6 SSE 20 22 11 12 1015.7 - 0.0
23/01:10am 14.2 11.4 13.1 93 0.6 SSE 20 20 11 11 1015.8 - 0.0
23/01:00am 14.5 11.7 13.2 92 0.7 SSE 20 22 11 12 1015.9 - 0.0
23/12:50am 14.7 12.1 13.2 91 0.9 SSE 19 20 10 11 1016.0 - 0.0

Other formats

Comma delimited format used in spreadsheet applications
http://www.bom.gov.au/fwo/IDN60801/IDN60801.99763.axf

JavaScript Object Notation format (JSON) in row-major order
http://www.bom.gov.au/fwo/IDN60801/IDN60801.99763.json

Data quality

Most of these data are generated automatically and are frequently updated. Quality checks on data are not normally performed. It is possible for incorrect values to appear. Refer to information at About Latest Weather Observations and please check the disclaimer before using these data.